createdAt,value
2023-02-13T00:01:27.424Z,100204.19
2023-02-13T00:03:55.163Z,100201.97
2023-02-13T00:06:22.932Z,100201.41
2023-02-13T00:08:50.657Z,100204.06
2023-02-13T00:11:18.585Z,100206.50
2023-02-13T00:13:47.828Z,100199.94
2023-02-13T00:16:15.544Z,100205.88
2023-02-13T00:18:43.238Z,100199.81
2023-02-13T00:21:14.085Z,100204.94
2023-02-13T00:23:42.491Z,100201.94
2023-02-13T00:26:12.112Z,100201.31
2023-02-13T00:28:40.683Z,100203.50
2023-02-13T00:31:11.326Z,100205.06
2023-02-13T00:33:39.309Z,100201.72
2023-02-13T00:36:08.856Z,100213.66
2023-02-13T00:38:37.145Z,100209.16
2023-02-13T00:41:05.418Z,100203.09
2023-02-13T00:43:33.519Z,100203.00
2023-02-13T00:46:01.696Z,100209.09
2023-02-13T00:48:32.407Z,100209.53
2023-02-13T00:51:00.425Z,100213.75
2023-02-13T00:53:28.588Z,100207.72
2023-02-13T00:55:56.527Z,100219.13
2023-02-13T00:58:24.644Z,100215.63
2023-02-13T01:00:53.696Z,100217.28
2023-02-13T01:03:22.311Z,100220.53
2023-02-13T01:05:52.367Z,100218.50
2023-02-13T01:08:21.287Z,100210.19
2023-02-13T01:10:50.079Z,100207.69
2023-02-13T01:13:19.472Z,100210.31
2023-02-13T01:15:48.238Z,100212.66
2023-02-13T01:18:16.967Z,100212.44
2023-02-13T01:20:45.275Z,100211.03
2023-02-13T01:23:14.389Z,100203.94
2023-02-13T01:25:42.467Z,100211.47
2023-02-13T01:28:10.550Z,100210.31
2023-02-13T01:30:38.346Z,100212.84
2023-02-13T01:33:06.511Z,100209.03
2023-02-13T01:35:34.259Z,100211.63
2023-02-13T01:38:01.979Z,100210.47
2023-02-13T01:40:32.465Z,100210.97
2023-02-13T01:43:00.228Z,100211.16
2023-02-13T01:45:29.841Z,100205.91
2023-02-13T01:48:01.628Z,100213.66
2023-02-13T01:50:35.569Z,100211.28
2023-02-13T01:53:08.143Z,100211.47
2023-02-13T01:55:43.617Z,100214.88
2023-02-13T01:58:15.752Z,100213.25
2023-02-13T02:00:44.648Z,100211.63
2023-02-13T02:03:15.562Z,100204.25
2023-02-13T02:05:44.013Z,100195.44
2023-02-13T02:08:15.508Z,100208.34
2023-02-13T02:10:44.918Z,100217.97
2023-02-13T02:13:15.248Z,100201.78
2023-02-13T02:15:44.090Z,100201.22
2023-02-13T02:18:18.531Z,100202.44
2023-02-13T02:21:26.053Z,100203.38
2023-02-13T02:24:35.326Z,100203.91
2023-02-13T02:27:18.103Z,100209.53
2023-02-13T02:30:13.276Z,100208.81
2023-02-13T02:32:58.438Z,100201.31
2023-02-13T02:35:33.125Z,100196.41
2023-02-13T02:38:13.032Z,100201.16
2023-02-13T02:41:01.586Z,100204.41
2023-02-13T02:43:49.843Z,100211.25
2023-02-13T02:46:22.986Z,100208.13
2023-02-13T02:49:13.736Z,100214.34
2023-02-13T02:51:49.787Z,100205.22
2023-02-13T02:54:39.079Z,100205.69
2023-02-13T02:57:11.719Z,100201.38
2023-02-13T03:00:00.560Z,100205.75
2023-02-13T03:02:47.432Z,100202.72
2023-02-13T03:05:40.078Z,100205.06
2023-02-13T03:08:08.355Z,100204.72
2023-02-13T03:10:56.006Z,100198.75
2023-02-13T03:13:39.921Z,100204.41
2023-02-13T03:16:25.418Z,100206.06
2023-02-13T03:19:14.420Z,100204.41
2023-02-13T03:22:06.802Z,100202.31
2023-02-13T03:24:45.025Z,100212.84
2023-02-13T03:27:40.395Z,100210.81
2023-02-13T03:30:19.062Z,100205.34
2023-02-13T03:32:57.248Z,100215.41
2023-02-13T03:35:53.082Z,100213.41
2023-02-13T03:38:29.190Z,100208.97
2023-02-13T03:41:18.479Z,100205.59
2023-02-13T03:43:55.442Z,100211.19
2023-02-13T03:46:25.621Z,100206.41
2023-02-13T03:49:11.568Z,100217.50
2023-02-13T03:51:43.723Z,100215.03
2023-02-13T03:54:19.565Z,100211.78
2023-02-13T03:57:09.094Z,100226.03
2023-02-13T03:59:38.687Z,100224.28
2023-02-13T04:02:12.437Z,100225.06
2023-02-13T04:04:47.749Z,100226.56
2023-02-13T04:07:30.600Z,100231.09
2023-02-13T04:10:03.770Z,100229.00
2023-02-13T04:12:40.466Z,100235.66
2023-02-13T04:15:13.613Z,100229.91
2023-02-13T04:17:44.841Z,100229.91
2023-02-13T04:20:13.579Z,100235.22
2023-02-13T04:22:45.482Z,100231.25
2023-02-13T04:25:16.760Z,100233.47
2023-02-13T04:27:44.540Z,100229.16
2023-02-13T04:30:13.488Z,100225.88
2023-02-13T04:32:41.235Z,100229.00
2023-02-13T04:35:11.518Z,100229.00
2023-02-13T04:37:39.251Z,100230.06
2023-02-13T04:40:07.928Z,100220.34
2023-02-13T04:42:36.955Z,100227.38
2023-02-13T04:45:05.149Z,100216.16
2023-02-13T04:47:33.038Z,100222.28
2023-02-13T04:50:00.718Z,100218.50
2023-02-13T04:52:28.368Z,100218.41
2023-02-13T04:54:56.031Z,100223.44
2023-02-13T04:57:23.699Z,100222.28
2023-02-13T04:59:52.742Z,100222.84
2023-02-13T05:02:20.406Z,100219.44
2023-02-13T05:04:48.140Z,100229.38
2023-02-13T05:07:16.020Z,100225.72
2023-02-13T05:09:43.675Z,100228.88
2023-02-13T05:12:11.430Z,100229.47
2023-02-13T05:14:39.349Z,100224.22
2023-02-13T05:17:08.515Z,100227.59
2023-02-13T05:19:36.360Z,100238.69
2023-02-13T05:22:21.657Z,100232.94
2023-02-13T05:24:49.272Z,100225.13
2023-02-13T05:27:17.011Z,100232.72
2023-02-13T05:29:44.726Z,100229.00
2023-02-13T05:32:13.907Z,100234.97
2023-02-13T05:34:41.712Z,100243.25
2023-02-13T05:37:09.410Z,100244.88
2023-02-13T05:39:37.114Z,100253.19
2023-02-13T05:42:05.437Z,100249.31
2023-02-13T05:44:33.488Z,100253.44
2023-02-13T05:47:01.166Z,100259.63
2023-02-13T05:49:30.235Z,100257.97
2023-02-13T05:51:57.917Z,100260.19
2023-02-13T05:54:25.607Z,100261.34
2023-02-13T05:56:53.407Z,100256.09
2023-02-13T05:59:22.769Z,100259.09
2023-02-13T06:01:51.643Z,100258.75
2023-02-13T06:04:19.380Z,100261.06
2023-02-13T06:06:48.722Z,100267.94
2023-02-13T06:09:16.451Z,100265.00
2023-02-13T06:11:44.129Z,100272.25
2023-02-13T06:14:12.269Z,100280.69
2023-02-13T06:16:39.989Z,100274.28
2023-02-13T06:19:07.921Z,100272.50
2023-02-13T06:21:37.941Z,100279.88
2023-02-13T06:24:08.596Z,100277.19
2023-02-13T06:26:36.321Z,100278.53
2023-02-13T06:29:05.757Z,100280.31
2023-02-13T06:31:34.461Z,100281.66
2023-02-13T06:34:03.510Z,100281.66
2023-02-13T06:36:31.414Z,100288.06
2023-02-13T06:38:59.205Z,100278.53
2023-02-13T06:41:28.305Z,100285.56
2023-02-13T06:43:56.132Z,100290.19
2023-02-13T06:46:23.894Z,100290.75
2023-02-13T06:48:51.643Z,100292.88
2023-02-13T06:51:19.353Z,100290.47
2023-02-13T06:53:47.387Z,100297.78
2023-02-13T06:56:15.247Z,100306.66
2023-02-13T06:58:44.383Z,100304.47
2023-02-13T07:01:12.491Z,100305.09
2023-02-13T07:03:40.284Z,100302.22
2023-02-13T07:06:08.164Z,100298.47
2023-02-13T07:08:35.891Z,100302.81
2023-02-13T07:11:03.594Z,100297.00
2023-02-13T07:13:31.244Z,100306.22
2023-02-13T07:16:03.034Z,100308.19
2023-02-13T07:18:30.758Z,100313.38
2023-02-13T07:20:59.328Z,100312.56
2023-02-13T07:23:27.292Z,100308.72
2023-02-13T07:25:55.048Z,100311.81
2023-02-13T07:28:22.836Z,100309.59
2023-02-13T07:30:50.681Z,100320.13
2023-02-13T07:33:19.934Z,100312.78
2023-02-13T07:35:48.096Z,100312.66
2023-02-13T07:38:16.015Z,100311.84
2023-02-13T07:40:44.013Z,100315.41
2023-02-13T07:43:13.528Z,100311.06
2023-02-13T07:45:41.316Z,100309.56
2023-02-13T07:48:09.058Z,100312.28
2023-02-13T07:50:38.178Z,100312.72
2023-02-13T07:53:05.874Z,100320.78
2023-02-13T07:55:33.708Z,100318.34
2023-02-13T07:58:02.050Z,100316.44
2023-02-13T08:00:29.817Z,100314.69
2023-02-13T08:03:00.243Z,100320.31
2023-02-13T08:05:28.295Z,100321.47
2023-02-13T08:07:57.358Z,100320.41
2023-02-13T08:10:43.108Z,100322.50
2023-02-13T08:13:13.821Z,100332.56
2023-02-13T08:15:41.792Z,100323.97
2023-02-13T08:18:09.592Z,100329.88
2023-02-13T08:20:37.329Z,100321.94
2023-02-13T08:23:07.975Z,100332.25
2023-02-13T08:25:36.074Z,100318.72
2023-02-13T08:28:03.941Z,100319.56
2023-02-13T08:30:31.744Z,100321.34
2023-02-13T08:32:59.664Z,100318.69
2023-02-13T08:35:29.740Z,100318.88
2023-02-13T08:37:57.830Z,100317.03
2023-02-13T08:40:27.005Z,100317.72
2023-02-13T08:43:01.219Z,100324.97
2023-02-13T08:45:29.410Z,100321.88
2023-02-13T08:47:58.547Z,100317.41
2023-02-13T08:50:27.418Z,100323.50
2023-02-13T08:52:55.262Z,100326.28
2023-02-13T08:55:23.063Z,100328.78
2023-02-13T08:57:52.056Z,100327.00
2023-02-13T09:00:20.511Z,100330.22
2023-02-13T09:02:48.275Z,100320.44
2023-02-13T09:05:16.087Z,100324.44
2023-02-13T09:07:43.803Z,100319.97
2023-02-13T09:10:12.342Z,100321.72
2023-02-13T09:12:40.038Z,100320.59
2023-02-13T09:15:10.020Z,100321.28
2023-02-13T09:17:37.806Z,100322.97
2023-02-13T09:20:06.412Z,100317.03
2023-02-13T09:22:34.131Z,100324.09
2023-02-13T09:25:04.205Z,100312.13
2023-02-13T09:27:32.128Z,100317.59
2023-02-13T09:30:00.196Z,100315.94
2023-02-13T09:32:29.685Z,100320.31
2023-02-13T09:34:57.365Z,100314.78
2023-02-13T09:37:24.995Z,100309.28
2023-02-13T09:39:52.744Z,100309.66
2023-02-13T09:42:25.342Z,100314.50
2023-02-13T09:44:55.447Z,100315.03
2023-02-13T09:47:31.235Z,100316.75
2023-02-13T09:50:03.385Z,100321.28
2023-02-13T09:52:34.716Z,100318.25
2023-02-13T09:55:02.779Z,100321.88
2023-02-13T09:57:35.613Z,100317.66
2023-02-13T10:00:13.166Z,100317.28
2023-02-13T10:03:10.272Z,100315.09
2023-02-13T10:05:47.920Z,100314.88
2023-02-13T10:08:31.154Z,100315.88
2023-02-13T10:11:05.029Z,100309.34
2023-02-13T10:13:49.712Z,100306.13
2023-02-13T10:16:20.442Z,100302.59
2023-02-13T10:18:54.628Z,100301.25
2023-02-13T10:21:25.660Z,100303.38
2023-02-13T10:23:59.290Z,100301.53
2023-02-13T10:26:42.683Z,100306.69
2023-02-13T10:29:36.123Z,100305.66
2023-02-13T10:32:09.930Z,100301.19
2023-02-13T10:34:44.539Z,100305.50
2023-02-13T10:37:17.723Z,100300.56
2023-02-13T10:39:47.440Z,100305.50
2023-02-13T10:42:25.728Z,100289.31
2023-02-13T10:45:06.506Z,100303.06
2023-02-13T10:47:53.690Z,100294.09
2023-02-13T10:50:32.452Z,100288.78
2023-02-13T10:53:13.974Z,100292.72
2023-02-13T10:55:57.936Z,100297.84
2023-02-13T10:58:35.695Z,100298.25
2023-02-13T11:01:10.574Z,100301.78
2023-02-13T11:03:39.304Z,100292.88
2023-02-13T11:06:10.260Z,100292.00
2023-02-13T11:08:43.163Z,100284.16
2023-02-13T11:11:32.759Z,100294.28
2023-02-13T11:14:27.779Z,100285.09
2023-02-13T11:16:58.552Z,100284.03
2023-02-13T11:19:31.102Z,100279.28
2023-02-13T11:22:02.780Z,100276.94
2023-02-13T11:24:32.178Z,100266.94
2023-02-13T11:27:02.771Z,100265.59
2023-02-13T11:29:33.533Z,100264.06
2023-02-13T11:32:20.405Z,100266.91
2023-02-13T11:34:50.654Z,100272.97
2023-02-13T11:37:25.427Z,100266.41
2023-02-13T11:39:55.086Z,100266.72
2023-02-13T11:42:31.343Z,100261.28
2023-02-13T11:45:03.752Z,100271.16
2023-02-13T11:47:36.956Z,100263.41
2023-02-13T11:50:05.939Z,100263.34
2023-02-13T11:52:35.926Z,100261.38
2023-02-13T11:55:07.961Z,100257.63
2023-02-13T11:57:37.954Z,100255.56
2023-02-13T12:00:31.140Z,100252.97
2023-02-13T12:02:59.092Z,100256.34
2023-02-13T12:05:29.026Z,100249.97
2023-02-13T12:08:00.577Z,100245.22
2023-02-13T12:10:30.338Z,100249.09
2023-02-13T12:13:00.292Z,100242.69
2023-02-13T12:15:31.727Z,100242.03
2023-02-13T12:18:11.056Z,100236.19
2023-02-13T12:20:51.090Z,100223.91
2023-02-13T12:23:31.596Z,100219.50
2023-02-13T12:26:16.986Z,100213.03
2023-02-13T12:28:56.876Z,100207.28
2023-02-13T12:31:41.962Z,100205.91
2023-02-13T12:34:36.306Z,100200.31
2023-02-13T12:37:17.900Z,100197.41
2023-02-13T12:39:59.182Z,100198.53
2023-02-13T12:42:42.251Z,100196.31
2023-02-13T12:45:23.338Z,100186.91
2023-02-13T12:48:05.019Z,100183.06
2023-02-13T12:50:44.944Z,100179.50
2023-02-13T12:53:32.604Z,100183.75
2023-02-13T12:56:23.560Z,100174.78
2023-02-13T12:59:01.389Z,100168.41
2023-02-13T13:01:49.977Z,100174.84
2023-02-13T13:04:29.338Z,100172.56
2023-02-13T13:07:15.684Z,100157.53
2023-02-13T13:10:15.754Z,100154.66
2023-02-13T13:12:51.839Z,100156.31
2023-02-13T13:15:28.051Z,100152.94
2023-02-13T13:18:03.429Z,100156.91
2023-02-13T13:20:56.277Z,100159.03
2023-02-13T13:23:30.724Z,100159.44
2023-02-13T13:26:08.010Z,100150.88
2023-02-13T13:28:40.105Z,100150.84
2023-02-13T13:31:09.578Z,100152.41
2023-02-13T13:33:43.983Z,100152.13
2023-02-13T13:36:20.573Z,100150.41
2023-02-13T13:39:01.555Z,100142.16
2023-02-13T13:41:40.054Z,100147.19
2023-02-13T13:44:28.085Z,100149.19
2023-02-13T13:47:01.021Z,100145.44
2023-02-13T13:49:39.059Z,100137.66
2023-02-13T13:52:26.013Z,100137.31
2023-02-13T13:54:55.018Z,100137.72
2023-02-13T13:57:23.408Z,100127.50
2023-02-13T14:00:19.156Z,100130.06
2023-02-13T14:02:49.749Z,100125.13
2023-02-13T14:05:30.757Z,100117.22
2023-02-13T14:08:01.574Z,100122.38
2023-02-13T14:11:09.366Z,100124.00
2023-02-13T14:13:39.829Z,100117.22
2023-02-13T14:16:11.518Z,100111.44
2023-02-13T14:18:45.085Z,100123.44
2023-02-13T14:21:17.938Z,100120.00
2023-02-13T14:23:53.231Z,100123.84
2023-02-13T14:26:32.458Z,100116.56
2023-02-13T14:29:16.278Z,100121.56
2023-02-13T14:31:53.720Z,100126.66
2023-02-13T14:34:26.732Z,100124.78
2023-02-13T14:37:07.994Z,100128.19
2023-02-13T14:39:37.552Z,100128.50
2023-02-13T14:42:22.654Z,100130.13
2023-02-13T14:44:52.494Z,100125.38
2023-02-13T14:47:26.170Z,100127.09
2023-02-13T14:49:54.449Z,100129.94
2023-02-13T14:52:27.519Z,100119.69
2023-02-13T14:55:01.780Z,100121.44
2023-02-13T14:57:32.274Z,100119.00
2023-02-13T15:00:05.067Z,100121.53
2023-02-13T15:02:39.019Z,100120.00
2023-02-13T15:05:13.899Z,100119.63
2023-02-13T15:07:47.779Z,100116.75
2023-02-13T15:10:35.014Z,100121.41
2023-02-13T15:13:06.205Z,100124.94
2023-02-13T15:15:36.918Z,100117.72
2023-02-13T15:18:10.210Z,100117.81
2023-02-13T15:20:41.616Z,100123.00
2023-02-13T15:23:20.649Z,100110.28
2023-02-13T15:25:57.558Z,100121.16
2023-02-13T15:28:26.900Z,100121.97
2023-02-13T15:30:56.943Z,100119.00
2023-02-13T15:33:26.995Z,100120.25
2023-02-13T15:35:59.740Z,100115.16
2023-02-13T15:38:30.300Z,100122.09
2023-02-13T15:41:02.147Z,100122.22
2023-02-13T15:43:35.757Z,100119.50
2023-02-13T15:46:06.983Z,100117.84
2023-02-13T15:48:36.320Z,100119.03
2023-02-13T15:51:04.678Z,100113.91
2023-02-13T15:53:32.594Z,100119.25
2023-02-13T15:56:04.705Z,100118.53
2023-02-13T15:58:35.139Z,100119.28
2023-02-13T16:01:06.590Z,100130.81
2023-02-13T16:03:36.510Z,100107.16
2023-02-13T16:06:06.533Z,100110.22
2023-02-13T16:08:38.321Z,100116.78
2023-02-13T16:11:33.350Z,100114.03
2023-02-13T16:14:26.417Z,100117.44
2023-02-13T16:16:57.303Z,100120.22
2023-02-13T16:19:43.251Z,100126.06
2023-02-13T16:22:27.120Z,100123.59
2023-02-13T16:25:03.919Z,100125.97
2023-02-13T16:27:35.481Z,100124.91
2023-02-13T16:30:05.804Z,100129.84
2023-02-13T16:32:35.035Z,100127.16
2023-02-13T16:35:28.402Z,100121.56
2023-02-13T16:37:58.808Z,100129.53
2023-02-13T16:40:38.347Z,100128.44
2023-02-13T16:43:36.616Z,100138.16
2023-02-13T16:46:35.727Z,100133.94
2023-02-13T16:49:22.808Z,100137.25
2023-02-13T16:51:55.240Z,100144.31
2023-02-13T16:54:38.004Z,100147.84
2023-02-13T16:57:18.570Z,100133.44
2023-02-13T17:00:01.379Z,100144.84
2023-02-13T17:02:30.184Z,100142.16
2023-02-13T17:05:00.344Z,100139.47
2023-02-13T17:07:31.326Z,100139.47
2023-02-13T17:10:04.466Z,100146.50
2023-02-13T17:12:50.387Z,100148.41
2023-02-13T17:15:22.107Z,100159.03
2023-02-13T17:17:50.898Z,100150.84
2023-02-13T17:20:20.599Z,100157.41
2023-02-13T17:22:51.483Z,100164.47
2023-02-13T17:25:22.438Z,100155.78
2023-02-13T17:27:50.804Z,100160.13
2023-02-13T17:30:22.236Z,100160.13
2023-02-13T17:32:51.948Z,100162.84
2023-02-13T17:35:19.862Z,100166.09
2023-02-13T17:37:47.564Z,100163.91
2023-02-13T17:40:18.333Z,100160.66
2023-02-13T17:42:47.488Z,100163.38
2023-02-13T17:45:16.606Z,100154.13
2023-02-13T17:47:45.892Z,100160.63
2023-02-13T17:50:15.170Z,100163.88
2023-02-13T17:52:43.352Z,100169.88
2023-02-13T17:55:17.750Z,100161.72
2023-02-13T17:57:45.863Z,100169.31
2023-02-13T18:00:14.852Z,100168.22
2023-02-13T18:02:43.549Z,100169.81
2023-02-13T18:05:13.098Z,100168.22
2023-02-13T18:07:43.160Z,100176.06
2023-02-13T18:10:14.995Z,100174.19
2023-02-13T18:12:43.215Z,100176.84
2023-02-13T18:15:11.769Z,100178.50
2023-02-13T18:17:39.913Z,100177.34
2023-02-13T18:20:09.769Z,100176.75
2023-02-13T18:22:39.046Z,100178.91
2023-02-13T18:25:08.697Z,100186.34
2023-02-13T18:27:37.176Z,100179.78
2023-02-13T18:30:06.518Z,100181.50
2023-02-13T18:32:34.206Z,100185.81
2023-02-13T18:35:03.665Z,100185.22
2023-02-13T18:37:33.414Z,100182.97
2023-02-13T18:40:02.649Z,100177.47
2023-02-13T18:42:30.399Z,100185.47
2023-02-13T18:44:58.132Z,100181.09
2023-02-13T18:47:25.837Z,100178.47
2023-02-13T18:49:53.613Z,100180.75
2023-02-13T18:52:21.315Z,100193.06
2023-02-13T18:54:49.120Z,100192.91
2023-02-13T18:57:18.108Z,100195.47
2023-02-13T18:59:45.893Z,100193.91
2023-02-13T19:02:13.781Z,100183.75
2023-02-13T19:04:41.846Z,100187.91
2023-02-13T19:07:09.606Z,100191.59
2023-02-13T19:09:40.283Z,100189.06
2023-02-13T19:12:08.987Z,100192.41
2023-02-13T19:14:39.717Z,100195.72
2023-02-13T19:17:08.535Z,100195.63
2023-02-13T19:19:36.316Z,100194.94
2023-02-13T19:22:04.505Z,100195.41
2023-02-13T19:24:32.505Z,100199.66
2023-02-13T19:27:00.435Z,100192.16
2023-02-13T19:29:28.242Z,100202.81
2023-02-13T19:31:57.327Z,100200.19
2023-02-13T19:34:25.128Z,100197.81
2023-02-13T19:36:52.830Z,100206.22
2023-02-13T19:39:20.535Z,100212.00
2023-02-13T19:41:48.331Z,100218.16
2023-02-13T19:44:16.034Z,100223.28
2023-02-13T19:46:44.026Z,100218.44
2023-02-13T19:49:13.178Z,100217.47
2023-02-13T19:51:42.062Z,100216.84
2023-02-13T19:54:12.822Z,100223.34
2023-02-13T19:56:42.336Z,100225.31
2023-02-13T19:59:13.319Z,100232.16
2023-02-13T20:01:42.982Z,100227.13
2023-02-13T20:04:11.263Z,100228.59
2023-02-13T20:06:41.039Z,100226.91
2023-02-13T20:09:11.952Z,100223.50
2023-02-13T20:11:40.787Z,100223.19
2023-02-13T20:14:11.507Z,100224.66
2023-02-13T20:16:40.214Z,100226.06
2023-02-13T20:19:11.520Z,100215.66
2023-02-13T20:21:41.416Z,100221.03
2023-02-13T20:24:09.786Z,100215.78
2023-02-13T20:26:40.663Z,100206.28
2023-02-13T20:29:09.390Z,100210.25
2023-02-13T20:31:41.193Z,100208.06
2023-02-13T20:34:09.545Z,100204.88
2023-02-13T20:36:37.256Z,100203.06
2023-02-13T20:39:08.488Z,100206.50
2023-02-13T20:41:40.396Z,100197.66
2023-02-13T20:44:11.421Z,100201.69
2023-02-13T20:46:41.228Z,100198.25
2023-02-13T20:49:11.665Z,100192.00
2023-02-13T20:51:39.503Z,100195.81
2023-02-13T20:54:08.906Z,100193.31
2023-02-13T20:56:37.348Z,100193.13
2023-02-13T20:59:06.368Z,100182.69
2023-02-13T21:01:37.339Z,100195.44
2023-02-13T21:04:10.727Z,100196.13
2023-02-13T21:06:41.549Z,100201.97
2023-02-13T21:09:12.008Z,100200.69
2023-02-13T21:11:42.602Z,100207.53
2023-02-13T21:14:11.794Z,100199.53
2023-02-13T21:16:42.395Z,100198.47
2023-02-13T21:19:17.398Z,100188.91
2023-02-13T21:21:46.061Z,100186.63
2023-02-13T21:24:17.712Z,100184.19
2023-02-13T21:26:46.973Z,100170.47
2023-02-13T21:29:15.998Z,100170.47
2023-02-13T21:31:47.484Z,100168.72
2023-02-13T21:34:17.046Z,100173.22
2023-02-13T21:36:45.329Z,100168.34
2023-02-13T21:39:15.504Z,100167.66
2023-02-13T21:41:45.185Z,100158.19
2023-02-13T21:44:14.590Z,100159.81
2023-02-13T21:46:44.120Z,100153.13
2023-02-13T21:49:14.219Z,100152.75
2023-02-13T21:51:42.422Z,100155.06
2023-02-13T21:54:11.634Z,100162.59
2023-02-13T21:56:43.228Z,100163.31
2023-02-13T21:59:15.705Z,100165.59
2023-02-13T22:01:44.001Z,100161.75
2023-02-13T22:04:12.264Z,100169.38
2023-02-13T22:06:41.641Z,100158.09
2023-02-13T22:09:11.444Z,100154.59
2023-02-13T22:11:42.131Z,100160.13
2023-02-13T22:14:13.409Z,100156.28
2023-02-13T22:16:46.812Z,100169.41
2023-02-13T22:19:17.246Z,100160.13
2023-02-13T22:21:46.383Z,100167.28
2023-02-13T22:24:14.590Z,100166.75
2023-02-13T22:26:46.257Z,100164.41
2023-02-13T22:29:16.100Z,100158.28
2023-02-13T22:31:43.974Z,100159.19
2023-02-13T22:34:13.538Z,100162.59
2023-02-13T22:36:42.920Z,100173.22
2023-02-13T22:39:12.367Z,100173.88
2023-02-13T22:41:40.385Z,100183.38
2023-02-13T22:44:09.478Z,100178.78
2023-02-13T22:46:37.463Z,100178.78
2023-02-13T22:49:05.730Z,100181.53
2023-02-13T22:51:36.652Z,100177.63
2023-02-13T22:54:06.335Z,100182.06
2023-02-13T22:56:34.904Z,100172.56
2023-02-13T22:59:05.183Z,100168.16
2023-02-13T23:01:37.257Z,100173.38
2023-02-13T23:04:07.551Z,100173.28
2023-02-13T23:06:35.475Z,100171.41
2023-02-13T23:09:03.332Z,100171.75
2023-02-13T23:11:49.594Z,100162.66
2023-02-13T23:14:17.817Z,100160.72
2023-02-13T23:17:04.301Z,100163.19
2023-02-13T23:19:32.256Z,100157.84
2023-02-13T23:22:01.637Z,100152.31
2023-02-13T23:24:30.324Z,100154.50
2023-02-13T23:27:02.159Z,100144.91
2023-02-13T23:29:29.811Z,100148.63
2023-02-13T23:31:59.185Z,100152.44
2023-02-13T23:34:27.017Z,100147.00
2023-02-13T23:36:54.755Z,100156.47
2023-02-13T23:39:24.183Z,100147.22
2023-02-13T23:41:52.073Z,100149.81
2023-02-13T23:44:19.803Z,100154.72
2023-02-13T23:46:47.546Z,100138.53
2023-02-13T23:49:16.866Z,100148.28
2023-02-13T23:51:46.975Z,100149.00
2023-02-13T23:54:16.484Z,100151.47
2023-02-13T23:56:44.193Z,100161.94
2023-02-13T23:59:12.472Z,100155.09
